sensor_id;sensor_type;location;lat;lon;timestamp;temperature;humidity
37642;DHT22;23486;51.956;5.888;2023-03-01T00:01:09;0.10;94.90
37642;DHT22;23486;51.956;5.888;2023-03-01T00:03:36;0.10;95.10
37642;DHT22;23486;51.956;5.888;2023-03-01T00:06:02;0.10;95.10
37642;DHT22;23486;51.956;5.888;2023-03-01T00:08:29;0.10;95.30
37642;DHT22;23486;51.956;5.888;2023-03-01T00:11:12;0.10;95.40
37642;DHT22;23486;51.956;5.888;2023-03-01T00:13:39;0.10;95.40
37642;DHT22;23486;51.956;5.888;2023-03-01T00:16:06;0.10;95.40
37642;DHT22;23486;51.956;5.888;2023-03-01T00:18:32;0.00;95.40
37642;DHT22;23486;51.956;5.888;2023-03-01T00:20:58;0.00;95.50
37642;DHT22;23486;51.956;5.888;2023-03-01T00:23:27;0.00;95.50
37642;DHT22;23486;51.956;5.888;2023-03-01T00:25:53;-0.10;95.60
37642;DHT22;23486;51.956;5.888;2023-03-01T00:28:20;-0.10;95.60
37642;DHT22;23486;51.956;5.888;2023-03-01T00:30:45;-0.20;95.90
37642;DHT22;23486;51.956;5.888;2023-03-01T00:33:14;-0.10;96.10
37642;DHT22;23486;51.956;5.888;2023-03-01T00:35:40;-0.10;96.00
37642;DHT22;23486;51.956;5.888;2023-03-01T00:38:06;-0.20;96.00
37642;DHT22;23486;51.956;5.888;2023-03-01T00:40:33;-0.20;96.20
37642;DHT22;23486;51.956;5.888;2023-03-01T00:43:03;-0.20;96.30
37642;DHT22;23486;51.956;5.888;2023-03-01T00:45:29;-0.20;96.50
37642;DHT22;23486;51.956;5.888;2023-03-01T00:47:56;-0.30;96.30
37642;DHT22;23486;51.956;5.888;2023-03-01T00:50:22;-0.30;96.40
37642;DHT22;23486;51.956;5.888;2023-03-01T00:52:52;-0.30;96.60
37642;DHT22;23486;51.956;5.888;2023-03-01T00:55:18;-0.30;96.90
37642;DHT22;23486;51.956;5.888;2023-03-01T00:57:43;-0.30;96.90
37642;DHT22;23486;51.956;5.888;2023-03-01T01:00:10;-0.40;96.90
37642;DHT22;23486;51.956;5.888;2023-03-01T01:02:37;-0.50;97.00
37642;DHT22;23486;51.956;5.888;2023-03-01T01:05:03;-0.50;97.10
37642;DHT22;23486;51.956;5.888;2023-03-01T01:07:29;-0.50;97.20
37642;DHT22;23486;51.956;5.888;2023-03-01T01:09:54;-0.60;97.50
37642;DHT22;23486;51.956;5.888;2023-03-01T01:12:20;-0.60;97.60
37642;DHT22;23486;51.956;5.888;2023-03-01T01:14:46;-0.50;97.80
37642;DHT22;23486;51.956;5.888;2023-03-01T01:17:11;-0.50;97.80
37642;DHT22;23486;51.956;5.888;2023-03-01T01:19:37;-0.60;97.90
37642;DHT22;23486;51.956;5.888;2023-03-01T01:22:02;-0.60;98.00
37642;DHT22;23486;51.956;5.888;2023-03-01T01:24:28;-0.60;98.30
37642;DHT22;23486;51.956;5.888;2023-03-01T01:26:57;-0.70;98.30
37642;DHT22;23486;51.956;5.888;2023-03-01T01:29:23;-0.70;98.30
37642;DHT22;23486;51.956;5.888;2023-03-01T01:31:48;-0.80;98.50
37642;DHT22;23486;51.956;5.888;2023-03-01T01:34:17;-0.80;98.50
37642;DHT22;23486;51.956;5.888;2023-03-01T01:36:43;-0.90;98.70
37642;DHT22;23486;51.956;5.888;2023-03-01T01:39:09;-1.00;99.00
37642;DHT22;23486;51.956;5.888;2023-03-01T01:41:40;-1.00;99.30
37642;DHT22;23486;51.956;5.888;2023-03-01T01:46:57;-1.00;99.70
37642;DHT22;23486;51.956;5.888;2023-03-01T01:52:35;-1.10;99.90
37642;DHT22;23486;51.956;5.888;2023-03-01T01:55:08;-1.10;99.90
37642;DHT22;23486;51.956;5.888;2023-03-01T01:57:38;-1.10;99.90
37642;DHT22;23486;51.956;5.888;2023-03-01T02:00:10;-1.00;99.90
37642;DHT22;23486;51.956;5.888;2023-03-01T02:02:36;-1.00;99.90
37642;DHT22;23486;51.956;5.888;2023-03-01T02:05:11;-1.00;99.90
37642;DHT22;23486;51.956;5.888;2023-03-01T02:07:40;-1.00;99.90
37642;DHT22;23486;51.956;5.888;2023-03-01T02:10:07;-1.00;99.90
37642;DHT22;23486;51.956;5.888;2023-03-01T02:12:33;-1.00;99.90
37642;DHT22;23486;51.956;5.888;2023-03-01T02:14:59;-1.10;99.90
37642;DHT22;23486;51.956;5.888;2023-03-01T02:17:25;-1.10;99.90
37642;DHT22;23486;51.956;5.888;2023-03-01T02:20:20;-1.20;99.90
37642;DHT22;23486;51.956;5.888;2023-03-01T02:22:48;-1.20;99.90
37642;DHT22;23486;51.956;5.888;2023-03-01T02:25:40;-1.20;99.90
37642;DHT22;23486;51.956;5.888;2023-03-01T02:30:42;-1.30;99.90
37642;DHT22;23486;51.956;5.888;2023-03-01T02:33:29;-1.30;99.90
37642;DHT22;23486;51.956;5.888;2023-03-01T02:36:02;-1.40;99.90
37642;DHT22;23486;51.956;5.888;2023-03-01T02:38:30;-1.40;99.90
37642;DHT22;23486;51.956;5.888;2023-03-01T02:40:57;-1.40;99.90
37642;DHT22;23486;51.956;5.888;2023-03-01T02:43:27;-1.40;99.90
37642;DHT22;23486;51.956;5.888;2023-03-01T02:46:05;-1.50;99.90
37642;DHT22;23486;51.956;5.888;2023-03-01T02:48:47;-1.40;99.90
37642;DHT22;23486;51.956;5.888;2023-03-01T02:56:41;-1.50;99.90
37642;DHT22;23486;51.956;5.888;2023-03-01T02:59:08;-1.50;99.90
37642;DHT22;23486;51.956;5.888;2023-03-01T03:01:35;-1.50;99.90
37642;DHT22;23486;51.956;5.888;2023-03-01T03:04:08;-1.50;99.90
37642;DHT22;23486;51.956;5.888;2023-03-01T03:06:35;-1.50;99.90
37642;DHT22;23486;51.956;5.888;2023-03-01T03:09:01;-1.50;99.90
37642;DHT22;23486;51.956;5.888;2023-03-01T03:11:28;-1.60;99.90
37642;DHT22;23486;51.956;5.888;2023-03-01T03:13:54;-1.50;99.90
37642;DHT22;23486;51.956;5.888;2023-03-01T03:16:23;-1.60;99.90
37642;DHT22;23486;51.956;5.888;2023-03-01T03:18:50;-1.60;99.90
37642;DHT22;23486;51.956;5.888;2023-03-01T03:21:16;-1.60;99.90
37642;DHT22;23486;51.956;5.888;2023-03-01T03:23:42;-1.60;99.90
37642;DHT22;23486;51.956;5.888;2023-03-01T03:26:08;-1.50;99.90
37642;DHT22;23486;51.956;5.888;2023-03-01T03:28:35;-1.50;99.90
37642;DHT22;23486;51.956;5.888;2023-03-01T03:31:01;-1.60;99.90
37642;DHT22;23486;51.956;5.888;2023-03-01T03:33:30;-1.60;99.90
37642;DHT22;23486;51.956;5.888;2023-03-01T03:35:55;-1.50;99.90
37642;DHT22;23486;51.956;5.888;2023-03-01T03:38:21;-1.40;99.90
37642;DHT22;23486;51.956;5.888;2023-03-01T03:41:07;-1.40;99.90
37642;DHT22;23486;51.956;5.888;2023-03-01T03:43:37;-1.30;99.90
37642;DHT22;23486;51.956;5.888;2023-03-01T03:46:04;-1.30;99.90
37642;DHT22;23486;51.956;5.888;2023-03-01T03:48:43;-1.20;99.90
37642;DHT22;23486;51.956;5.888;2023-03-01T03:51:17;-1.10;99.90
37642;DHT22;23486;51.956;5.888;2023-03-01T03:53:44;-1.20;99.90
37642;DHT22;23486;51.956;5.888;2023-03-01T03:56:13;-1.30;99.90
37642;DHT22;23486;51.956;5.888;2023-03-01T03:58:39;-1.30;99.90
37642;DHT22;23486;51.956;5.888;2023-03-01T04:01:05;-1.40;99.90
37642;DHT22;23486;51.956;5.888;2023-03-01T04:03:32;-1.40;99.90
37642;DHT22;23486;51.956;5.888;2023-03-01T04:05:59;-1.30;99.90
37642;DHT22;23486;51.956;5.888;2023-03-01T04:08:28;-1.20;99.90
37642;DHT22;23486;51.956;5.888;2023-03-01T04:10:59;-1.10;99.90
37642;DHT22;23486;51.956;5.888;2023-03-01T04:13:26;-1.10;99.90
37642;DHT22;23486;51.956;5.888;2023-03-01T04:15:52;-1.00;99.90
37642;DHT22;23486;51.956;5.888;2023-03-01T04:18:21;-1.00;99.90
37642;DHT22;23486;51.956;5.888;2023-03-01T04:20:47;-1.00;99.90
37642;DHT22;23486;51.956;5.888;2023-03-01T04:23:15;-1.00;99.90
37642;DHT22;23486;51.956;5.888;2023-03-01T04:25:58;-1.10;99.90
37642;DHT22;23486;51.956;5.888;2023-03-01T04:30:55;-1.10;99.90
37642;DHT22;23486;51.956;5.888;2023-03-01T04:33:22;-1.10;99.90
37642;DHT22;23486;51.956;5.888;2023-03-01T04:35:47;-1.10;99.90
37642;DHT22;23486;51.956;5.888;2023-03-01T04:38:17;-1.10;99.90
37642;DHT22;23486;51.956;5.888;2023-03-01T04:40:43;-1.10;99.90
37642;DHT22;23486;51.956;5.888;2023-03-01T04:43:10;-1.10;99.90
37642;DHT22;23486;51.956;5.888;2023-03-01T04:45:36;-1.20;99.90
37642;DHT22;23486;51.956;5.888;2023-03-01T04:48:02;-1.20;99.90
37642;DHT22;23486;51.956;5.888;2023-03-01T04:50:28;-1.40;99.90
37642;DHT22;23486;51.956;5.888;2023-03-01T04:52:58;-1.40;99.90
37642;DHT22;23486;51.956;5.888;2023-03-01T04:55:27;-1.50;99.90
37642;DHT22;23486;51.956;5.888;2023-03-01T04:57:54;-1.50;99.90
37642;DHT22;23486;51.956;5.888;2023-03-01T05:00:20;-1.50;99.90
37642;DHT22;23486;51.956;5.888;2023-03-01T05:02:48;-1.50;99.90
37642;DHT22;23486;51.956;5.888;2023-03-01T05:05:15;-1.50;99.90
37642;DHT22;23486;51.956;5.888;2023-03-01T05:07:43;-1.60;99.90
37642;DHT22;23486;51.956;5.888;2023-03-01T05:10:09;-1.60;99.90
37642;DHT22;23486;51.956;5.888;2023-03-01T05:12:35;-1.60;99.90
37642;DHT22;23486;51.956;5.888;2023-03-01T05:15:06;-1.70;99.90
37642;DHT22;23486;51.956;5.888;2023-03-01T05:17:34;-1.70;99.90
37642;DHT22;23486;51.956;5.888;2023-03-01T05:20:00;-1.70;99.90
37642;DHT22;23486;51.956;5.888;2023-03-01T05:22:26;-1.80;99.90
37642;DHT22;23486;51.956;5.888;2023-03-01T05:24:52;-1.80;99.90
37642;DHT22;23486;51.956;5.888;2023-03-01T05:27:19;-1.80;99.90
37642;DHT22;23486;51.956;5.888;2023-03-01T05:29:47;-1.80;99.90
37642;DHT22;23486;51.956;5.888;2023-03-01T05:32:13;-1.80;99.90
37642;DHT22;23486;51.956;5.888;2023-03-01T05:34:41;-1.80;99.90
37642;DHT22;23486;51.956;5.888;2023-03-01T05:37:07;-1.90;99.90
37642;DHT22;23486;51.956;5.888;2023-03-01T05:39:34;-1.90;99.90
37642;DHT22;23486;51.956;5.888;2023-03-01T05:42:00;-1.90;99.90
37642;DHT22;23486;51.956;5.888;2023-03-01T05:44:27;-1.90;99.90
37642;DHT22;23486;51.956;5.888;2023-03-01T05:46:56;-2.00;99.90
37642;DHT22;23486;51.956;5.888;2023-03-01T05:49:22;-2.00;99.90
37642;DHT22;23486;51.956;5.888;2023-03-01T05:51:52;-2.00;99.90
37642;DHT22;23486;51.956;5.888;2023-03-01T05:54:20;-1.90;99.90
37642;DHT22;23486;51.956;5.888;2023-03-01T05:56:46;-1.90;99.90
37642;DHT22;23486;51.956;5.888;2023-03-01T05:59:14;-1.90;99.90
37642;DHT22;23486;51.956;5.888;2023-03-01T06:01:41;-1.80;99.90
37642;DHT22;23486;51.956;5.888;2023-03-01T06:04:07;-1.80;99.90
37642;DHT22;23486;51.956;5.888;2023-03-01T06:06:36;-1.80;99.90
37642;DHT22;23486;51.956;5.888;2023-03-01T06:09:03;-1.80;99.90
37642;DHT22;23486;51.956;5.888;2023-03-01T06:11:29;-1.80;99.90
37642;DHT22;23486;51.956;5.888;2023-03-01T06:13:55;-1.80;99.90
37642;DHT22;23486;51.956;5.888;2023-03-01T06:16:20;-1.90;99.90
37642;DHT22;23486;51.956;5.888;2023-03-01T06:18:46;-1.90;99.90
37642;DHT22;23486;51.956;5.888;2023-03-01T06:21:11;-1.90;99.90
37642;DHT22;23486;51.956;5.888;2023-03-01T06:23:37;-1.90;99.90
37642;DHT22;23486;51.956;5.888;2023-03-01T06:26:09;-1.90;99.90
37642;DHT22;23486;51.956;5.888;2023-03-01T06:28:35;-1.90;99.90
37642;DHT22;23486;51.956;5.888;2023-03-01T06:31:01;-2.00;99.90
37642;DHT22;23486;51.956;5.888;2023-03-01T06:33:26;-1.90;99.90
37642;DHT22;23486;51.956;5.888;2023-03-01T06:35:55;-1.90;99.90
37642;DHT22;23486;51.956;5.888;2023-03-01T06:38:22;-1.90;99.90
37642;DHT22;23486;51.956;5.888;2023-03-01T06:40:55;-1.90;99.90
37642;DHT22;23486;51.956;5.888;2023-03-01T06:43:22;-1.90;99.90
37642;DHT22;23486;51.956;5.888;2023-03-01T06:45:48;-1.90;99.90
37642;DHT22;23486;51.956;5.888;2023-03-01T06:48:14;-1.90;99.90
37642;DHT22;23486;51.956;5.888;2023-03-01T06:50:40;-1.90;99.90
37642;DHT22;23486;51.956;5.888;2023-03-01T06:53:05;-1.80;99.90
37642;DHT22;23486;51.956;5.888;2023-03-01T06:55:31;-1.70;99.90
37642;DHT22;23486;51.956;5.888;2023-03-01T06:57:58;-1.60;99.90
37642;DHT22;23486;51.956;5.888;2023-03-01T07:00:25;-1.60;99.90
37642;DHT22;23486;51.956;5.888;2023-03-01T07:02:50;-1.60;99.90
37642;DHT22;23486;51.956;5.888;2023-03-01T07:05:16;-1.50;99.90
37642;DHT22;23486;51.956;5.888;2023-03-01T07:07:42;-1.30;99.90
37642;DHT22;23486;51.956;5.888;2023-03-01T07:10:08;-1.10;99.90
37642;DHT22;23486;51.956;5.888;2023-03-01T07:12:34;-1.00;99.90
37642;DHT22;23486;51.956;5.888;2023-03-01T07:14:59;-0.90;99.90
37642;DHT22;23486;51.956;5.888;2023-03-01T07:17:25;-0.70;99.90
37642;DHT22;23486;51.956;5.888;2023-03-01T07:19:50;-0.70;99.90
37642;DHT22;23486;51.956;5.888;2023-03-01T07:22:16;-0.60;99.90
37642;DHT22;23486;51.956;5.888;2023-03-01T07:24:42;-0.50;99.90
37642;DHT22;23486;51.956;5.888;2023-03-01T07:27:09;-0.40;99.90
37642;DHT22;23486;51.956;5.888;2023-03-01T07:29:34;-0.30;99.90
37642;DHT22;23486;51.956;5.888;2023-03-01T07:32:02;-0.30;99.90
37642;DHT22;23486;51.956;5.888;2023-03-01T07:34:28;-0.20;99.90
37642;DHT22;23486;51.956;5.888;2023-03-01T07:36:53;-0.20;99.90
37642;DHT22;23486;51.956;5.888;2023-03-01T07:39:19;-0.20;99.90
37642;DHT22;23486;51.956;5.888;2023-03-01T07:41:45;-0.10;99.90
37642;DHT22;23486;51.956;5.888;2023-03-01T07:44:10;-0.10;99.90
37642;DHT22;23486;51.956;5.888;2023-03-01T07:46:36;-0.10;99.90
37642;DHT22;23486;51.956;5.888;2023-03-01T07:49:05;-0.10;99.90
37642;DHT22;23486;51.956;5.888;2023-03-01T07:51:30;-0.10;99.90
37642;DHT22;23486;51.956;5.888;2023-03-01T07:54:08;0.00;99.90
37642;DHT22;23486;51.956;5.888;2023-03-01T07:56:34;0.10;99.90
37642;DHT22;23486;51.956;5.888;2023-03-01T07:58:59;0.20;99.90
37642;DHT22;23486;51.956;5.888;2023-03-01T08:01:25;0.30;99.90
37642;DHT22;23486;51.956;5.888;2023-03-01T08:03:51;0.30;99.90
37642;DHT22;23486;51.956;5.888;2023-03-01T08:06:19;0.40;99.90
37642;DHT22;23486;51.956;5.888;2023-03-01T08:08:48;0.40;99.90
37642;DHT22;23486;51.956;5.888;2023-03-01T08:11:15;0.40;99.90
37642;DHT22;23486;51.956;5.888;2023-03-01T08:13:42;0.50;99.90
37642;DHT22;23486;51.956;5.888;2023-03-01T08:16:11;0.50;99.90
37642;DHT22;23486;51.956;5.888;2023-03-01T08:18:37;0.60;99.90
37642;DHT22;23486;51.956;5.888;2023-03-01T08:21:08;0.60;99.90
37642;DHT22;23486;51.956;5.888;2023-03-01T08:23:34;0.70;99.90
37642;DHT22;23486;51.956;5.888;2023-03-01T08:26:12;0.70;99.90
37642;DHT22;23486;51.956;5.888;2023-03-01T08:28:38;0.80;99.90
37642;DHT22;23486;51.956;5.888;2023-03-01T08:31:14;0.90;99.90
37642;DHT22;23486;51.956;5.888;2023-03-01T08:33:40;1.00;99.90
37642;DHT22;23486;51.956;5.888;2023-03-01T08:36:06;1.10;99.90
37642;DHT22;23486;51.956;5.888;2023-03-01T08:38:35;1.20;99.90
37642;DHT22;23486;51.956;5.888;2023-03-01T08:41:04;1.20;99.90
37642;DHT22;23486;51.956;5.888;2023-03-01T08:43:30;1.30;99.90
37642;DHT22;23486;51.956;5.888;2023-03-01T08:45:56;1.30;99.90
37642;DHT22;23486;51.956;5.888;2023-03-01T08:48:21;1.40;99.90
37642;DHT22;23486;51.956;5.888;2023-03-01T08:50:47;1.50;99.90
37642;DHT22;23486;51.956;5.888;2023-03-01T08:53:12;1.60;99.90
37642;DHT22;23486;51.956;5.888;2023-03-01T08:55:38;1.60;99.90
37642;DHT22;23486;51.956;5.888;2023-03-01T08:58:03;1.60;99.90
37642;DHT22;23486;51.956;5.888;2023-03-01T09:00:29;1.70;99.90
37642;DHT22;23486;51.956;5.888;2023-03-01T09:02:55;1.70;99.90
37642;DHT22;23486;51.956;5.888;2023-03-01T09:05:20;1.70;99.90
37642;DHT22;23486;51.956;5.888;2023-03-01T09:07:46;1.80;99.90
37642;DHT22;23486;51.956;5.888;2023-03-01T09:10:15;1.80;99.90
37642;DHT22;23486;51.956;5.888;2023-03-01T09:12:40;1.90;99.90
37642;DHT22;23486;51.956;5.888;2023-03-01T09:15:06;2.00;99.90
37642;DHT22;23486;51.956;5.888;2023-03-01T09:17:32;2.00;99.90
37642;DHT22;23486;51.956;5.888;2023-03-01T09:19:58;2.10;99.90
37642;DHT22;23486;51.956;5.888;2023-03-01T09:22:25;2.10;99.90
37642;DHT22;23486;51.956;5.888;2023-03-01T09:24:50;2.20;99.90
37642;DHT22;23486;51.956;5.888;2023-03-01T09:27:16;2.20;99.90
37642;DHT22;23486;51.956;5.888;2023-03-01T09:29:44;2.20;99.90
37642;DHT22;23486;51.956;5.888;2023-03-01T09:32:10;2.30;99.90
37642;DHT22;23486;51.956;5.888;2023-03-01T09:34:36;2.30;99.90
37642;DHT22;23486;51.956;5.888;2023-03-01T09:37:21;2.30;99.90
37642;DHT22;23486;51.956;5.888;2023-03-01T09:39:47;2.30;99.90
37642;DHT22;23486;51.956;5.888;2023-03-01T09:42:13;2.40;99.90
37642;DHT22;23486;51.956;5.888;2023-03-01T09:47:52;2.50;99.90
37642;DHT22;23486;51.956;5.888;2023-03-01T09:50:19;2.60;99.90
37642;DHT22;23486;51.956;5.888;2023-03-01T09:53:10;2.70;99.90
37642;DHT22;23486;51.956;5.888;2023-03-01T09:55:45;2.70;99.90
37642;DHT22;23486;51.956;5.888;2023-03-01T09:59:20;2.80;99.80
37642;DHT22;23486;51.956;5.888;2023-03-01T10:01:34;2.80;99.80
37642;DHT22;23486;51.956;5.888;2023-03-01T10:09:53;3.00;99.60
37642;DHT22;23486;51.956;5.888;2023-03-01T10:12:22;3.10;99.20
37642;DHT22;23486;51.956;5.888;2023-03-01T10:15:07;3.10;98.60
37642;DHT22;23486;51.956;5.888;2023-03-01T10:17:46;3.20;98.70
37642;DHT22;23486;51.956;5.888;2023-03-01T10:20:33;3.30;98.80
37642;DHT22;23486;51.956;5.888;2023-03-01T10:23:02;3.30;98.70
37642;DHT22;23486;51.956;5.888;2023-03-01T10:26:02;3.30;97.10
37642;DHT22;23486;51.956;5.888;2023-03-01T10:34:18;3.40;97.10
37642;DHT22;23486;51.956;5.888;2023-03-01T10:36:48;3.50;96.80
37642;DHT22;23486;51.956;5.888;2023-03-01T10:39:17;3.50;96.70
37642;DHT22;23486;51.956;5.888;2023-03-01T10:41:58;3.50;96.10
37642;DHT22;23486;51.956;5.888;2023-03-01T10:44:40;3.60;96.10
37642;DHT22;23486;51.956;5.888;2023-03-01T10:47:20;3.70;95.90
37642;DHT22;23486;51.956;5.888;2023-03-01T10:52:24;3.80;96.40
37642;DHT22;23486;51.956;5.888;2023-03-01T10:54:56;3.80;96.20
37642;DHT22;23486;51.956;5.888;2023-03-01T10:57:33;3.90;95.00
37642;DHT22;23486;51.956;5.888;2023-03-01T11:00:18;3.90;95.10
37642;DHT22;23486;51.956;5.888;2023-03-01T11:03:12;4.00;95.00
37642;DHT22;23486;51.956;5.888;2023-03-01T11:05:51;4.00;94.50
37642;DHT22;23486;51.956;5.888;2023-03-01T11:08:30;4.00;94.90
37642;DHT22;23486;51.956;5.888;2023-03-01T11:16:36;4.30;93.00
37642;DHT22;23486;51.956;5.888;2023-03-01T11:21:55;4.40;93.50
37642;DHT22;23486;51.956;5.888;2023-03-01T11:24:30;4.40;93.80
37642;DHT22;23486;51.956;5.888;2023-03-01T11:27:00;4.50;94.00
37642;DHT22;23486;51.956;5.888;2023-03-01T11:29:35;4.50;94.00
37642;DHT22;23486;51.956;5.888;2023-03-01T11:32:07;4.50;94.00
37642;DHT22;23486;51.956;5.888;2023-03-01T11:37:38;4.60;94.10
37642;DHT22;23486;51.956;5.888;2023-03-01T11:40:24;4.60;93.70
37642;DHT22;23486;51.956;5.888;2023-03-01T11:43:32;4.70;93.70
37642;DHT22;23486;51.956;5.888;2023-03-01T11:49:10;4.80;93.50
37642;DHT22;23486;51.956;5.888;2023-03-01T12:10:02;5.20;91.60
37642;DHT22;23486;51.956;5.888;2023-03-01T12:18:36;5.40;90.90
37642;DHT22;23486;51.956;5.888;2023-03-01T12:25:10;5.50;90.40
37642;DHT22;23486;51.956;5.888;2023-03-01T12:35:36;5.70;88.60
37642;DHT22;23486;51.956;5.888;2023-03-01T12:41:18;5.70;86.30
37642;DHT22;23486;51.956;5.888;2023-03-01T12:46:38;5.80;88.50
37642;DHT22;23486;51.956;5.888;2023-03-01T12:49:17;6.00;88.60
37642;DHT22;23486;51.956;5.888;2023-03-01T12:51:55;6.10;88.90
37642;DHT22;23486;51.956;5.888;2023-03-01T12:54:33;6.10;88.40
37642;DHT22;23486;51.956;5.888;2023-03-01T12:57:12;6.20;88.00
37642;DHT22;23486;51.956;5.888;2023-03-01T12:59:59;6.30;88.10
37642;DHT22;23486;51.956;5.888;2023-03-01T13:02:41;6.30;88.30
37642;DHT22;23486;51.956;5.888;2023-03-01T13:08:03;6.40;86.50
37642;DHT22;23486;51.956;5.888;2023-03-01T13:10:34;6.50;86.70
37642;DHT22;23486;51.956;5.888;2023-03-01T13:13:13;6.50;86.90
37642;DHT22;23486;51.956;5.888;2023-03-01T13:15:40;6.50;86.70
37642;DHT22;23486;51.956;5.888;2023-03-01T13:23:28;6.50;81.40
37642;DHT22;23486;51.956;5.888;2023-03-01T13:26:00;6.60;82.60
37642;DHT22;23486;51.956;5.888;2023-03-01T13:31:02;6.80;81.80
37642;DHT22;23486;51.956;5.888;2023-03-01T13:36:00;6.90;82.30
37642;DHT22;23486;51.956;5.888;2023-03-01T13:38:39;6.90;81.00
37642;DHT22;23486;51.956;5.888;2023-03-01T13:41:09;6.90;81.60
37642;DHT22;23486;51.956;5.888;2023-03-01T13:43:37;6.90;81.50
37642;DHT22;23486;51.956;5.888;2023-03-01T13:46:23;7.00;82.00
37642;DHT22;23486;51.956;5.888;2023-03-01T13:48:55;7.00;81.50
37642;DHT22;23486;51.956;5.888;2023-03-01T13:51:28;7.10;81.70
37642;DHT22;23486;51.956;5.888;2023-03-01T13:53:55;7.10;80.30
37642;DHT22;23486;51.956;5.888;2023-03-01T13:56:25;7.00;78.80
37642;DHT22;23486;51.956;5.888;2023-03-01T13:59:02;7.00;78.40
37642;DHT22;23486;51.956;5.888;2023-03-01T14:01:33;7.00;78.20
37642;DHT22;23486;51.956;5.888;2023-03-01T14:03:59;6.90;77.90
37642;DHT22;23486;51.956;5.888;2023-03-01T14:14:42;7.10;77.90
37642;DHT22;23486;51.956;5.888;2023-03-01T14:20:11;7.10;78.20
37642;DHT22;23486;51.956;5.888;2023-03-01T14:22:41;7.10;78.20
37642;DHT22;23486;51.956;5.888;2023-03-01T14:25:36;7.20;78.90
37642;DHT22;23486;51.956;5.888;2023-03-01T14:30:47;7.30;78.90
37642;DHT22;23486;51.956;5.888;2023-03-01T14:38:27;7.20;77.80
37642;DHT22;23486;51.956;5.888;2023-03-01T14:40:59;7.20;77.20
37642;DHT22;23486;51.956;5.888;2023-03-01T14:43:27;7.10;77.80
37642;DHT22;23486;51.956;5.888;2023-03-01T14:45:54;7.10;77.20
37642;DHT22;23486;51.956;5.888;2023-03-01T14:48:19;7.10;77.80
37642;DHT22;23486;51.956;5.888;2023-03-01T14:50:45;7.20;78.30
37642;DHT22;23486;51.956;5.888;2023-03-01T14:53:23;7.20;78.50
37642;DHT22;23486;51.956;5.888;2023-03-01T14:56:01;7.20;78.40
37642;DHT22;23486;51.956;5.888;2023-03-01T14:58:32;7.30;78.70
37642;DHT22;23486;51.956;5.888;2023-03-01T15:01:01;7.30;78.00
37642;DHT22;23486;51.956;5.888;2023-03-01T15:03:43;7.40;78.50
37642;DHT22;23486;51.956;5.888;2023-03-01T15:06:10;7.30;74.60
37642;DHT22;23486;51.956;5.888;2023-03-01T15:08:41;7.30;72.30
37642;DHT22;23486;51.956;5.888;2023-03-01T15:13:39;7.30;73.90
37642;DHT22;23486;51.956;5.888;2023-03-01T15:16:13;7.40;74.60
37642;DHT22;23486;51.956;5.888;2023-03-01T15:18:58;7.40;74.50
37642;DHT22;23486;51.956;5.888;2023-03-01T15:21:27;7.50;74.20
37642;DHT22;23486;51.956;5.888;2023-03-01T15:26:51;7.60;75.60
37642;DHT22;23486;51.956;5.888;2023-03-01T15:29:22;7.70;76.00
37642;DHT22;23486;51.956;5.888;2023-03-01T15:32:28;7.80;75.20
37642;DHT22;23486;51.956;5.888;2023-03-01T15:34:54;7.80;76.30
37642;DHT22;23486;51.956;5.888;2023-03-01T15:37:40;7.90;77.70
37642;DHT22;23486;51.956;5.888;2023-03-01T15:40:29;8.00;74.30
37642;DHT22;23486;51.956;5.888;2023-03-01T15:43:03;8.00;72.70
37642;DHT22;23486;51.956;5.888;2023-03-01T15:45:31;7.90;73.00
37642;DHT22;23486;51.956;5.888;2023-03-01T15:48:04;7.90;73.50
37642;DHT22;23486;51.956;5.888;2023-03-01T15:50:33;8.00;74.10
37642;DHT22;23486;51.956;5.888;2023-03-01T15:53:03;8.00;74.00
37642;DHT22;23486;51.956;5.888;2023-03-01T15:55:31;8.00;73.70
37642;DHT22;23486;51.956;5.888;2023-03-01T15:58:04;8.00;73.30
37642;DHT22;23486;51.956;5.888;2023-03-01T16:00:32;8.00;73.70
37642;DHT22;23486;51.956;5.888;2023-03-01T16:02:58;8.00;73.40
37642;DHT22;23486;51.956;5.888;2023-03-01T16:05:31;8.10;74.20
37642;DHT22;23486;51.956;5.888;2023-03-01T16:07:57;8.10;74.50
37642;DHT22;23486;51.956;5.888;2023-03-01T16:10:23;8.10;73.50
37642;DHT22;23486;51.956;5.888;2023-03-01T16:12:50;8.10;73.50
37642;DHT22;23486;51.956;5.888;2023-03-01T16:15:20;8.20;74.10
37642;DHT22;23486;51.956;5.888;2023-03-01T16:17:46;8.20;74.80
37642;DHT22;23486;51.956;5.888;2023-03-01T16:20:22;8.10;74.60
37642;DHT22;23486;51.956;5.888;2023-03-01T16:22:48;7.90;73.70
37642;DHT22;23486;51.956;5.888;2023-03-01T16:25:16;7.70;73.60
37642;DHT22;23486;51.956;5.888;2023-03-01T16:27:49;7.50;73.40
37642;DHT22;23486;51.956;5.888;2023-03-01T16:30:17;7.30;72.90
37642;DHT22;23486;51.956;5.888;2023-03-01T16:32:45;7.10;72.80
37642;DHT22;23486;51.956;5.888;2023-03-01T16:35:13;6.90;72.10
37642;DHT22;23486;51.956;5.888;2023-03-01T16:37:40;6.80;72.40
37642;DHT22;23486;51.956;5.888;2023-03-01T16:40:21;6.60;72.50
37642;DHT22;23486;51.956;5.888;2023-03-01T16:42:50;6.50;72.60
37642;DHT22;23486;51.956;5.888;2023-03-01T16:45:20;6.40;72.60
37642;DHT22;23486;51.956;5.888;2023-03-01T16:47:45;6.40;72.50
37642;DHT22;23486;51.956;5.888;2023-03-01T16:50:11;6.20;72.80
37642;DHT22;23486;51.956;5.888;2023-03-01T16:52:37;6.20;72.60
37642;DHT22;23486;51.956;5.888;2023-03-01T16:55:05;6.10;73.50
37642;DHT22;23486;51.956;5.888;2023-03-01T16:57:33;6.10;73.00
37642;DHT22;23486;51.956;5.888;2023-03-01T16:59:59;6.00;73.30
37642;DHT22;23486;51.956;5.888;2023-03-01T17:02:25;5.90;73.70
37642;DHT22;23486;51.956;5.888;2023-03-01T17:04:52;5.80;74.10
37642;DHT22;23486;51.956;5.888;2023-03-01T17:07:18;5.80;74.30
37642;DHT22;23486;51.956;5.888;2023-03-01T17:09:44;5.70;74.70
37642;DHT22;23486;51.956;5.888;2023-03-01T17:12:15;5.60;74.90
37642;DHT22;23486;51.956;5.888;2023-03-01T17:14:41;5.60;75.20
37642;DHT22;23486;51.956;5.888;2023-03-01T17:17:10;5.50;75.50
37642;DHT22;23486;51.956;5.888;2023-03-01T17:19:37;5.40;75.70
37642;DHT22;23486;51.956;5.888;2023-03-01T17:22:06;5.40;76.00
37642;DHT22;23486;51.956;5.888;2023-03-01T17:24:34;5.40;76.20
37642;DHT22;23486;51.956;5.888;2023-03-01T17:27:00;5.30;76.50
37642;DHT22;23486;51.956;5.888;2023-03-01T17:29:25;5.30;76.70
37642;DHT22;23486;51.956;5.888;2023-03-01T17:31:51;5.20;76.90
37642;DHT22;23486;51.956;5.888;2023-03-01T17:34:22;5.20;77.10
37642;DHT22;23486;51.956;5.888;2023-03-01T17:36:48;5.10;77.30
37642;DHT22;23486;51.956;5.888;2023-03-01T17:39:15;5.10;77.70
37642;DHT22;23486;51.956;5.888;2023-03-01T17:41:41;5.00;77.90
37642;DHT22;23486;51.956;5.888;2023-03-01T17:44:07;5.00;78.20
37642;DHT22;23486;51.956;5.888;2023-03-01T17:46:36;5.00;78.50
37642;DHT22;23486;51.956;5.888;2023-03-01T17:49:02;4.90;78.50
37642;DHT22;23486;51.956;5.888;2023-03-01T17:51:28;4.80;78.90
37642;DHT22;23486;51.956;5.888;2023-03-01T17:53:53;4.80;79.10
37642;DHT22;23486;51.956;5.888;2023-03-01T17:56:19;4.70;79.30
37642;DHT22;23486;51.956;5.888;2023-03-01T17:58:45;4.70;79.50
37642;DHT22;23486;51.956;5.888;2023-03-01T18:01:16;4.60;79.80
37642;DHT22;23486;51.956;5.888;2023-03-01T18:03:43;4.50;80.60